• Join FlightAware (Why Join?)
  • Login
  • US Flag 
08:02PM EDT


 

Airport Tracker/Info


-or-


 

Live Flight TrackerFlight Track Log ✈ AMF1019 ✈ 25-Sep-2013 ✈ KRIC - KCVG

Flight Track Log - Related Links

Times and Time Zones

All times are in EDT time to prevent confusion due to time zone crossing. See the AMF1019 flight status page for this flight to view local times or setup timezone preferences in your user account.

Time Position Orientation Groundspeed Altitude Reporting Facility
EDT Latitude Longitude Course Direction KTS MPH feet Rate Location/Type
09:43PM 37.5328 -77.3333 247° West 168 193 1,400  Level Washington Center
09:44PM 37.5528 -77.3889 294° West 176 203 3,200 1,800 Climbing Washington Center
09:45PM 37.5644 -77.4494 284° West 170 196 5,000 1,740 Climbing Washington Center
09:46PM 37.5781 -77.5100 286° West 175 201 6,700 1,680 Climbing Washington Center
09:47PM 37.5917 -77.5758 285° West 185 213 8,400 1,620 Climbing Washington Center
09:48PM 37.6031 -77.6364 283° West 185 213 10,000 1,500 Climbing Washington Center
09:49PM 37.5860 -77.6501 247° West  Level Estimated
09:49PM 37.6208 -77.7025 289° West 185 213 11,400  Level Washington Center
09:50PM 37.6342 -77.7711 284° West 185 213 12,900 1,500 Climbing Washington Center
09:51PM 37.6475 -77.8422 283° West 197 227 14,500 1,560 Climbing Washington Center
09:52PM 37.6628 -77.9108 286° West 203 234 16,000 1,320 Climbing Washington Center
09:53PM 37.6739 -77.9794 282° West 203 234 17,200 1,260 Climbing Washington Center
09:54PM 37.6894 -78.0456 287° West 203 234 18,600 1,200 Climbing Washington Center
09:55PM 37.7025 -78.1142 284° West 203 234 19,600 660 Climbing Washington Center
09:56PM 37.7236 -78.1989 288° West 213 245 20,000 180 Climbing Washington Center
09:57PM 37.7425 -78.2861 285° West 235 270 20,000  Level Washington Center
09:58PM 37.7553 -78.3733 281° West 249 287 20,000  Level Washington Center
09:59PM 37.7742 -78.4528 287° West 257 296 20,000  Level Washington Center
10:00PM 37.7928 -78.5428 285° West 262 302 20,000  Level Washington Center
10:01PM 37.8094 -78.6303 284° West 262 302 20,000  Level Washington Center
10:02PM 37.8297 -78.7311 284° West 262 302 20,000  Level Washington Center
10:03PM 37.8461 -78.8211 283° West 262 302 20,000  Level Washington Center
10:04PM 37.8644 -78.9139 284° West 262 302 20,000  Level Washington Center
10:05PM 37.8828 -79.0042 284° West 262 302 20,000  Level Washington Center
10:06PM 37.8969 -79.0892 282° West 262 302 20,000  Level Washington Center
10:07PM 37.9172 -79.1822 285° West 262 302 20,000  Level Washington Center
10:08PM 37.9311 -79.2750 281° West 267 307 20,000  Level Washington Center
10:09PM 37.9489 -79.3761 283° West 267 307 20,000  Level Washington Center
10:10PM 37.9667 -79.4692 284° West 267 307 20,000  Level Washington Center
10:11PM 37.9803 -79.5619 281° West 267 307 20,000  Level Washington Center
10:12PM 37.9967 -79.6392 285° West 267 307 20,000  Level Washington Center
10:13PM 38.0122 -79.7297 282° West 262 302 20,000  Level Washington Center
10:14PM 38.0239 -79.8175 280° West 257 296 20,000  Level Washington Center
10:15PM 38.0433 -79.9161 284° West 263 303 20,000  Level Washington Center
10:16PM 38.0586 -80.0092 282° West 263 303 20,000  Level Washington Center
10:17PM 38.0739 -80.0997 282° West 263 303 20,000  Level Washington Center
10:19PM 38.1003 -80.2583 282° West 266 306 20,000  Level Indianapolis Center
10:20PM 38.1169 -80.3511 283° West 269 310 20,000  Level Indianapolis Center
10:21PM 38.1308 -80.4444 281° West 270 311 20,000  Level Indianapolis Center
10:22PM 38.1517 -80.5561 283° West 271 312 20,000  Level Indianapolis Center
10:23PM 38.1692 -80.6478 284° West 268 308 20,000  Level Indianapolis Center
10:24PM 38.1831 -80.7417 281° West 268 308 20,000  Level Indianapolis Center
10:25PM 38.1981 -80.8356 282° West 269 310 20,000  Level Indianapolis Center
10:26PM 38.2239 -80.9258 290° West 271 312 20,000  Level Indianapolis Center
10:27PM 38.2458 -81.0181 287° West 273 314 20,000  Level Indianapolis Center
10:28PM 38.2628 -81.1122 283° West 274 315 20,000  Level Indianapolis Center
10:29PM 38.2861 -81.2036 288° West 274 315 20,000  Level Indianapolis Center
10:30PM 38.3078 -81.2975 286° West 275 316 20,000  Level Indianapolis Center
10:31PM 38.3261 -81.3906 284° West 269 310 20,000  Level Indianapolis Center
10:33PM 38.3481 -81.4811 287° West 269 310 20,000  Level Indianapolis Center
10:34PM 38.3692 -81.5747 286° West 273 314 20,000  Level Indianapolis Center
10:35PM 38.3886 -81.6689 285° West 274 315 20,000  Level Indianapolis Center
10:36PM 38.4100 -81.7614 286° West 271 312 20,000  Level Indianapolis Center
10:37PM 38.4303 -81.8531 286° West 268 308 20,000  Level Indianapolis Center
10:38PM 38.4528 -81.9611 285° West 263 303 20,000  Level Indianapolis Center
10:39PM 38.4739 -82.0522 287° West 266 306 20,000  Level Indianapolis Center
10:40PM 38.4931 -82.1425 285° West 263 303 20,000  Level Indianapolis Center
10:41PM 38.5111 -82.2314 285° West 258 297 20,000  Level Indianapolis Center
10:42PM 38.5311 -82.3183 286° West 256 295 20,000  Level Indianapolis Center
10:43PM 38.5494 -82.4064 285° West 255 293 20,000  Level Indianapolis Center
10:44PM 38.5678 -82.4975 284° West 257 296 20,000  Level Indianapolis Center
10:45PM 38.5869 -82.5878 285° West 261 300 20,000  Level Indianapolis Center
10:46PM 38.6058 -82.6783 285° West 262 302 20,000  Level Indianapolis Center
10:47PM 38.6261 -82.7694 286° West 264 304 20,000  Level Indianapolis Center
10:48PM 38.6461 -82.8633 285° West 264 304 20,000  Level Indianapolis Center
10:49PM 38.6628 -82.9511 284° West 265 305 20,000  Level Indianapolis Center
10:50PM 38.6825 -83.0425 285° West 264 304 20,000  Level Indianapolis Center
10:51PM 38.7053 -83.1533 285° West 268 308 20,000  Level Indianapolis Center
10:52PM 38.7219 -83.2294 286° West 265 305 20,000  Level Indianapolis Center
10:53PM 38.7453 -83.3394 285° West 266 306 20,000 -120 Level Indianapolis Center
10:54PM 38.7636 -83.4306 284° West 265 305 19,800 -420 Descending Indianapolis Center
10:55PM 38.7850 -83.5261 286° West 278 320 19,200 -660 Descending Indianapolis Center
10:56PM 38.8017 -83.6256 282° West 285 328 18,500 -900 Descending Indianapolis Center
10:57PM 38.8211 -83.7233 284° West 284 327 17,400 -1,020 Descending Indianapolis Center
10:58PM 38.8433 -83.8236 286° West 290 334 16,500 -1,080 Descending Indianapolis Center
10:59PM 38.8628 -83.9253 284° West 293 337 15,200 -1,260 Descending Indianapolis Center
11:00PM 38.8825 -84.0264 284° West 292 336 14,000 -1,560 Descending Indianapolis Center
11:01PM 38.9044 -84.1172 287° West 272 313 12,100 -1,860 Descending Indianapolis Center
11:02PM 38.9214 -84.2072 284° West 262 302 10,300 -1,740 Descending Indianapolis Center
11:03PM 38.9303 -84.2944 277° West 253 291 8,600 -1,980 Descending Indianapolis Center
11:04PM 38.9442 -84.3956 280° West 243 280 6,300 -1,920 Descending Indianapolis Center
11:05PM 38.9531 -84.4758 278° West 234 269 4,700 -960 Descending Indianapolis Center
11:06PM 38.9617 -84.5542 278° West 232 267 4,400 -1,080 Descending Indianapolis Center
11:08PM 38.9833 -84.6500 286° West 157 181 2,000 -1,560 Descending Cincinnati TRACON
11:10PM 39.0333 -84.6667 270° West  Level FlightAware Approximate
11:17PM 39.0488 -84.6678 270° West  Level Estimated